sensor_id;sensor_type;location;lat;lon;timestamp;P1;durP1;ratioP1;P2;durP2;ratioP2
16450;SDS011;12243;42.708;23.310;2023-02-07T00:01:31;5.90;;;4.43;;
16450;SDS011;12243;42.708;23.310;2023-02-07T00:03:58;4.70;;;4.20;;
16450;SDS011;12243;42.708;23.310;2023-02-07T00:06:28;3.90;;;3.53;;
16450;SDS011;12243;42.708;23.310;2023-02-07T00:08:58;4.90;;;3.80;;
16450;SDS011;12243;42.708;23.310;2023-02-07T00:11:26;5.27;;;4.23;;
16450;SDS011;12243;42.708;23.310;2023-02-07T00:13:54;3.67;;;3.30;;
16450;SDS011;12243;42.708;23.310;2023-02-07T00:16:22;4.57;;;4.13;;
16450;SDS011;12243;42.708;23.310;2023-02-07T00:18:50;4.63;;;4.03;;
16450;SDS011;12243;42.708;23.310;2023-02-07T00:21:18;4.00;;;3.60;;
16450;SDS011;12243;42.708;23.310;2023-02-07T00:23:50;4.17;;;3.40;;
16450;SDS011;12243;42.708;23.310;2023-02-07T00:26:18;4.57;;;3.20;;
16450;SDS011;12243;42.708;23.310;2023-02-07T00:28:47;3.93;;;3.57;;
16450;SDS011;12243;42.708;23.310;2023-02-07T00:31:16;4.13;;;3.37;;
16450;SDS011;12243;42.708;23.310;2023-02-07T00:33:44;4.30;;;3.60;;
16450;SDS011;12243;42.708;23.310;2023-02-07T00:36:17;6.67;;;4.47;;
16450;SDS011;12243;42.708;23.310;2023-02-07T00:38:46;5.27;;;3.60;;
16450;SDS011;12243;42.708;23.310;2023-02-07T00:41:16;5.13;;;3.83;;
16450;SDS011;12243;42.708;23.310;2023-02-07T00:43:44;5.53;;;4.03;;
16450;SDS011;12243;42.708;23.310;2023-02-07T00:46:13;6.43;;;4.47;;
16450;SDS011;12243;42.708;23.310;2023-02-07T00:48:41;7.13;;;4.40;;
16450;SDS011;12243;42.708;23.310;2023-02-07T00:51:08;4.77;;;4.20;;
16450;SDS011;12243;42.708;23.310;2023-02-07T00:53:36;6.50;;;4.30;;
16450;SDS011;12243;42.708;23.310;2023-02-07T00:56:04;4.90;;;4.27;;
16450;SDS011;12243;42.708;23.310;2023-02-07T00:58:32;5.03;;;4.17;;
16450;SDS011;12243;42.708;23.310;2023-02-07T01:01:00;6.17;;;4.70;;
16450;SDS011;12243;42.708;23.310;2023-02-07T01:03:27;5.93;;;4.10;;
16450;SDS011;12243;42.708;23.310;2023-02-07T01:05:56;4.70;;;3.33;;
16450;SDS011;12243;42.708;23.310;2023-02-07T01:08:24;5.53;;;4.27;;
16450;SDS011;12243;42.708;23.310;2023-02-07T01:10:52;5.70;;;4.60;;
16450;SDS011;12243;42.708;23.310;2023-02-07T01:13:21;5.57;;;4.30;;
16450;SDS011;12243;42.708;23.310;2023-02-07T01:15:53;6.60;;;4.27;;
16450;SDS011;12243;42.708;23.310;2023-02-07T01:18:20;6.00;;;3.57;;
16450;SDS011;12243;42.708;23.310;2023-02-07T01:20:48;5.60;;;3.93;;
16450;SDS011;12243;42.708;23.310;2023-02-07T01:23:15;6.00;;;4.20;;
16450;SDS011;12243;42.708;23.310;2023-02-07T01:25:44;5.10;;;4.23;;
16450;SDS011;12243;42.708;23.310;2023-02-07T01:28:11;5.80;;;4.33;;
16450;SDS011;12243;42.708;23.310;2023-02-07T01:30:39;6.00;;;5.00;;
16450;SDS011;12243;42.708;23.310;2023-02-07T01:33:09;7.53;;;4.67;;
16450;SDS011;12243;42.708;23.310;2023-02-07T01:35:36;5.93;;;4.53;;
16450;SDS011;12243;42.708;23.310;2023-02-07T01:38:03;4.97;;;3.90;;
16450;SDS011;12243;42.708;23.310;2023-02-07T01:40:34;5.47;;;4.50;;
16450;SDS011;12243;42.708;23.310;2023-02-07T01:43:03;4.73;;;4.23;;
16450;SDS011;12243;42.708;23.310;2023-02-07T01:45:31;5.13;;;4.10;;
16450;SDS011;12243;42.708;23.310;2023-02-07T01:48:00;5.07;;;4.10;;
16450;SDS011;12243;42.708;23.310;2023-02-07T01:50:33;4.57;;;3.73;;
16450;SDS011;12243;42.708;23.310;2023-02-07T01:53:01;5.50;;;4.53;;
16450;SDS011;12243;42.708;23.310;2023-02-07T01:55:31;5.20;;;4.10;;
16450;SDS011;12243;42.708;23.310;2023-02-07T01:58:03;5.97;;;4.10;;
16450;SDS011;12243;42.708;23.310;2023-02-07T02:00:31;6.10;;;4.20;;
16450;SDS011;12243;42.708;23.310;2023-02-07T02:02:59;5.30;;;4.30;;
16450;SDS011;12243;42.708;23.310;2023-02-07T02:05:27;6.63;;;4.70;;
16450;SDS011;12243;42.708;23.310;2023-02-07T02:07:57;5.83;;;4.43;;
16450;SDS011;12243;42.708;23.310;2023-02-07T02:10:26;6.47;;;4.37;;
16450;SDS011;12243;42.708;23.310;2023-02-07T02:13:07;4.43;;;4.03;;
16450;SDS011;12243;42.708;23.310;2023-02-07T02:15:47;6.37;;;4.37;;
16450;SDS011;12243;42.708;23.310;2023-02-07T02:18:25;4.47;;;4.07;;
16450;SDS011;12243;42.708;23.310;2023-02-07T02:24:01;5.23;;;4.37;;
16450;SDS011;12243;42.708;23.310;2023-02-07T02:26:53;6.67;;;4.37;;
16450;SDS011;12243;42.708;23.310;2023-02-07T02:29:30;6.03;;;4.57;;
16450;SDS011;12243;42.708;23.310;2023-02-07T02:35:41;5.50;;;4.50;;
16450;SDS011;12243;42.708;23.310;2023-02-07T02:38:15;8.60;;;5.27;;
16450;SDS011;12243;42.708;23.310;2023-02-07T02:40:53;5.90;;;4.70;;
16450;SDS011;12243;42.708;23.310;2023-02-07T02:43:27;6.60;;;4.60;;
16450;SDS011;12243;42.708;23.310;2023-02-07T02:46:03;7.57;;;4.50;;
16450;SDS011;12243;42.708;23.310;2023-02-07T02:48:36;6.07;;;4.33;;
16450;SDS011;12243;42.708;23.310;2023-02-07T02:51:04;6.27;;;4.73;;
16450;SDS011;12243;42.708;23.310;2023-02-07T02:53:31;9.37;;;5.63;;
16450;SDS011;12243;42.708;23.310;2023-02-07T03:01:56;5.67;;;4.67;;
16450;SDS011;12243;42.708;23.310;2023-02-07T03:04:39;5.70;;;4.13;;
16450;SDS011;12243;42.708;23.310;2023-02-07T03:07:31;9.00;;;3.87;;
16450;SDS011;12243;42.708;23.310;2023-02-07T03:10:11;7.03;;;4.60;;
16450;SDS011;12243;42.708;23.310;2023-02-07T03:12:46;5.13;;;4.27;;
16450;SDS011;12243;42.708;23.310;2023-02-07T03:15:22;5.07;;;4.10;;
16450;SDS011;12243;42.708;23.310;2023-02-07T03:17:59;5.23;;;4.20;;
16450;SDS011;12243;42.708;23.310;2023-02-07T03:20:33;6.70;;;4.10;;
16450;SDS011;12243;42.708;23.310;2023-02-07T03:23:03;6.23;;;4.30;;
16450;SDS011;12243;42.708;23.310;2023-02-07T03:25:32;5.53;;;4.63;;
16450;SDS011;12243;42.708;23.310;2023-02-07T03:28:00;7.90;;;4.37;;
16450;SDS011;12243;42.708;23.310;2023-02-07T03:30:30;5.40;;;4.43;;
16450;SDS011;12243;42.708;23.310;2023-02-07T03:33:00;6.87;;;5.03;;
16450;SDS011;12243;42.708;23.310;2023-02-07T03:35:34;7.07;;;4.90;;
16450;SDS011;12243;42.708;23.310;2023-02-07T03:38:05;8.50;;;5.60;;
16450;SDS011;12243;42.708;23.310;2023-02-07T03:40:35;7.77;;;5.17;;
16450;SDS011;12243;42.708;23.310;2023-02-07T03:43:06;5.90;;;5.30;;
16450;SDS011;12243;42.708;23.310;2023-02-07T03:45:38;6.53;;;4.63;;
16450;SDS011;12243;42.708;23.310;2023-02-07T03:48:05;4.67;;;4.27;;
16450;SDS011;12243;42.708;23.310;2023-02-07T03:50:34;4.83;;;4.20;;
16450;SDS011;12243;42.708;23.310;2023-02-07T03:53:01;4.67;;;4.20;;
16450;SDS011;12243;42.708;23.310;2023-02-07T03:55:27;4.67;;;3.90;;
16450;SDS011;12243;42.708;23.310;2023-02-07T03:57:54;6.77;;;4.80;;
16450;SDS011;12243;42.708;23.310;2023-02-07T04:00:22;5.23;;;4.27;;
16450;SDS011;12243;42.708;23.310;2023-02-07T04:02:50;6.83;;;4.30;;
16450;SDS011;12243;42.708;23.310;2023-02-07T04:05:17;6.33;;;4.80;;
16450;SDS011;12243;42.708;23.310;2023-02-07T04:07:45;6.10;;;4.73;;
16450;SDS011;12243;42.708;23.310;2023-02-07T04:10:13;7.73;;;4.67;;
16450;SDS011;12243;42.708;23.310;2023-02-07T04:12:40;5.80;;;4.23;;
16450;SDS011;12243;42.708;23.310;2023-02-07T04:15:10;7.20;;;4.37;;
16450;SDS011;12243;42.708;23.310;2023-02-07T04:17:37;5.87;;;4.80;;
16450;SDS011;12243;42.708;23.310;2023-02-07T04:20:05;5.73;;;4.73;;
16450;SDS011;12243;42.708;23.310;2023-02-07T04:22:32;6.43;;;4.67;;
16450;SDS011;12243;42.708;23.310;2023-02-07T04:25:02;4.97;;;4.37;;
16450;SDS011;12243;42.708;23.310;2023-02-07T04:27:29;7.50;;;5.53;;
16450;SDS011;12243;42.708;23.310;2023-02-07T04:29:58;8.40;;;4.87;;
16450;SDS011;12243;42.708;23.310;2023-02-07T04:32:27;7.40;;;5.17;;
16450;SDS011;12243;42.708;23.310;2023-02-07T04:34:54;9.77;;;5.53;;
16450;SDS011;12243;42.708;23.310;2023-02-07T04:37:21;6.67;;;5.10;;
16450;SDS011;12243;42.708;23.310;2023-02-07T04:39:48;8.30;;;4.33;;
16450;SDS011;12243;42.708;23.310;2023-02-07T04:42:17;9.00;;;5.23;;
16450;SDS011;12243;42.708;23.310;2023-02-07T04:44:44;6.57;;;4.77;;
16450;SDS011;12243;42.708;23.310;2023-02-07T04:47:11;6.67;;;5.00;;
16450;SDS011;12243;42.708;23.310;2023-02-07T04:49:40;7.80;;;4.80;;
16450;SDS011;12243;42.708;23.310;2023-02-07T04:52:07;7.50;;;4.97;;
16450;SDS011;12243;42.708;23.310;2023-02-07T04:54:34;7.47;;;5.37;;
16450;SDS011;12243;42.708;23.310;2023-02-07T04:57:01;6.87;;;5.17;;
16450;SDS011;12243;42.708;23.310;2023-02-07T04:59:30;9.07;;;6.13;;
16450;SDS011;12243;42.708;23.310;2023-02-07T05:01:57;7.53;;;5.83;;
16450;SDS011;12243;42.708;23.310;2023-02-07T05:04:24;9.67;;;5.67;;
16450;SDS011;12243;42.708;23.310;2023-02-07T05:06:52;9.17;;;5.93;;
16450;SDS011;12243;42.708;23.310;2023-02-07T05:09:19;8.77;;;6.10;;
16450;SDS011;12243;42.708;23.310;2023-02-07T05:11:46;8.47;;;6.20;;
16450;SDS011;12243;42.708;23.310;2023-02-07T05:14:14;8.53;;;6.37;;
16450;SDS011;12243;42.708;23.310;2023-02-07T05:16:43;12.93;;;8.07;;
16450;SDS011;12243;42.708;23.310;2023-02-07T05:19:10;18.00;;;9.73;;
16450;SDS011;12243;42.708;23.310;2023-02-07T05:21:37;15.13;;;9.00;;
16450;SDS011;12243;42.708;23.310;2023-02-07T05:24:04;16.07;;;9.43;;
16450;SDS011;12243;42.708;23.310;2023-02-07T05:26:32;14.33;;;9.10;;
16450;SDS011;12243;42.708;23.310;2023-02-07T05:28:59;15.00;;;9.20;;
16450;SDS011;12243;42.708;23.310;2023-02-07T05:31:26;16.43;;;10.47;;
16450;SDS011;12243;42.708;23.310;2023-02-07T05:34:08;14.97;;;9.27;;
16450;SDS011;12243;42.708;23.310;2023-02-07T05:36:36;14.83;;;8.57;;
16450;SDS011;12243;42.708;23.310;2023-02-07T05:39:03;13.20;;;8.63;;
16450;SDS011;12243;42.708;23.310;2023-02-07T05:41:30;15.40;;;9.47;;
16450;SDS011;12243;42.708;23.310;2023-02-07T05:44:04;15.00;;;9.63;;
16450;SDS011;12243;42.708;23.310;2023-02-07T05:46:31;15.23;;;8.97;;
16450;SDS011;12243;42.708;23.310;2023-02-07T05:48:58;13.63;;;8.87;;
16450;SDS011;12243;42.708;23.310;2023-02-07T05:51:27;15.47;;;10.07;;
16450;SDS011;12243;42.708;23.310;2023-02-07T05:53:54;18.63;;;11.07;;
16450;SDS011;12243;42.708;23.310;2023-02-07T05:56:21;17.67;;;10.37;;
16450;SDS011;12243;42.708;23.310;2023-02-07T05:58:48;20.37;;;11.27;;
16450;SDS011;12243;42.708;23.310;2023-02-07T06:01:16;20.63;;;11.90;;
16450;SDS011;12243;42.708;23.310;2023-02-07T06:03:43;22.23;;;12.77;;
16450;SDS011;12243;42.708;23.310;2023-02-07T06:06:10;17.80;;;10.20;;
16450;SDS011;12243;42.708;23.310;2023-02-07T06:08:38;19.10;;;9.83;;
16450;SDS011;12243;42.708;23.310;2023-02-07T06:11:05;18.30;;;10.93;;
16450;SDS011;12243;42.708;23.310;2023-02-07T06:13:32;15.83;;;8.73;;
16450;SDS011;12243;42.708;23.310;2023-02-07T06:16:00;16.23;;;10.73;;
16450;SDS011;12243;42.708;23.310;2023-02-07T06:18:27;18.13;;;11.40;;
16450;SDS011;12243;42.708;23.310;2023-02-07T06:20:54;15.40;;;10.80;;
16450;SDS011;12243;42.708;23.310;2023-02-07T06:23:21;17.23;;;10.40;;
16450;SDS011;12243;42.708;23.310;2023-02-07T06:25:49;15.97;;;9.07;;
16450;SDS011;12243;42.708;23.310;2023-02-07T06:28:17;17.97;;;10.17;;
16450;SDS011;12243;42.708;23.310;2023-02-07T06:30:44;15.93;;;9.43;;
16450;SDS011;12243;42.708;23.310;2023-02-07T06:33:11;16.60;;;10.20;;
16450;SDS011;12243;42.708;23.310;2023-02-07T06:35:39;18.20;;;11.40;;
16450;SDS011;12243;42.708;23.310;2023-02-07T06:38:11;19.23;;;11.13;;
16450;SDS011;12243;42.708;23.310;2023-02-07T06:40:39;18.90;;;10.83;;
16450;SDS011;12243;42.708;23.310;2023-02-07T06:43:08;20.60;;;12.30;;
16450;SDS011;12243;42.708;23.310;2023-02-07T06:45:37;18.63;;;11.43;;
16450;SDS011;12243;42.708;23.310;2023-02-07T06:48:04;22.43;;;12.03;;
16450;SDS011;12243;42.708;23.310;2023-02-07T06:50:31;28.30;;;12.73;;
16450;SDS011;12243;42.708;23.310;2023-02-07T06:52:58;18.70;;;10.73;;
16450;SDS011;12243;42.708;23.310;2023-02-07T06:55:26;22.77;;;11.53;;
16450;SDS011;12243;42.708;23.310;2023-02-07T06:57:53;19.80;;;11.87;;
16450;SDS011;12243;42.708;23.310;2023-02-07T07:00:22;22.63;;;12.50;;
16450;SDS011;12243;42.708;23.310;2023-02-07T07:02:50;18.73;;;12.23;;
16450;SDS011;12243;42.708;23.310;2023-02-07T07:05:18;22.30;;;13.07;;
16450;SDS011;12243;42.708;23.310;2023-02-07T07:07:46;22.10;;;12.70;;
16450;SDS011;12243;42.708;23.310;2023-02-07T07:10:13;18.37;;;10.97;;
16450;SDS011;12243;42.708;23.310;2023-02-07T07:12:40;15.73;;;9.90;;
16450;SDS011;12243;42.708;23.310;2023-02-07T07:15:08;14.93;;;10.30;;
16450;SDS011;12243;42.708;23.310;2023-02-07T07:17:36;19.37;;;10.53;;
16450;SDS011;12243;42.708;23.310;2023-02-07T07:20:04;23.33;;;14.30;;
16450;SDS011;12243;42.708;23.310;2023-02-07T07:22:31;21.47;;;12.27;;
16450;SDS011;12243;42.708;23.310;2023-02-07T07:24:59;25.30;;;13.53;;
16450;SDS011;12243;42.708;23.310;2023-02-07T07:27:26;24.03;;;13.10;;
16450;SDS011;12243;42.708;23.310;2023-02-07T07:29:53;18.13;;;11.40;;
16450;SDS011;12243;42.708;23.310;2023-02-07T07:32:20;17.10;;;10.27;;
16450;SDS011;12243;42.708;23.310;2023-02-07T07:34:48;21.63;;;12.47;;
16450;SDS011;12243;42.708;23.310;2023-02-07T07:37:15;20.13;;;13.33;;
16450;SDS011;12243;42.708;23.310;2023-02-07T07:39:42;21.13;;;11.80;;
16450;SDS011;12243;42.708;23.310;2023-02-07T07:42:09;24.33;;;13.17;;
16450;SDS011;12243;42.708;23.310;2023-02-07T07:44:56;26.13;;;12.13;;
16450;SDS011;12243;42.708;23.310;2023-02-07T07:47:23;18.90;;;11.23;;
16450;SDS011;12243;42.708;23.310;2023-02-07T07:49:53;18.90;;;11.33;;
16450;SDS011;12243;42.708;23.310;2023-02-07T07:52:20;16.80;;;11.40;;
16450;SDS011;12243;42.708;23.310;2023-02-07T07:54:47;17.67;;;11.37;;
16450;SDS011;12243;42.708;23.310;2023-02-07T07:57:14;15.70;;;10.67;;
16450;SDS011;12243;42.708;23.310;2023-02-07T07:59:41;15.97;;;10.87;;
16450;SDS011;12243;42.708;23.310;2023-02-07T08:02:09;17.50;;;12.07;;
16450;SDS011;12243;42.708;23.310;2023-02-07T08:04:38;15.47;;;11.20;;
16450;SDS011;12243;42.708;23.310;2023-02-07T08:07:06;22.03;;;12.53;;
16450;SDS011;12243;42.708;23.310;2023-02-07T08:09:33;18.87;;;11.90;;
16450;SDS011;12243;42.708;23.310;2023-02-07T08:12:00;17.47;;;11.57;;
16450;SDS011;12243;42.708;23.310;2023-02-07T08:14:27;19.43;;;9.07;;
16450;SDS011;12243;42.708;23.310;2023-02-07T08:16:54;19.00;;;10.90;;
16450;SDS011;12243;42.708;23.310;2023-02-07T08:19:21;16.00;;;9.93;;
16450;SDS011;12243;42.708;23.310;2023-02-07T08:21:48;17.63;;;10.40;;
16450;SDS011;12243;42.708;23.310;2023-02-07T08:24:17;16.43;;;10.53;;
16450;SDS011;12243;42.708;23.310;2023-02-07T08:26:44;14.60;;;9.67;;
16450;SDS011;12243;42.708;23.310;2023-02-07T08:29:11;18.30;;;11.40;;
16450;SDS011;12243;42.708;23.310;2023-02-07T08:31:38;18.10;;;10.47;;
16450;SDS011;12243;42.708;23.310;2023-02-07T08:34:05;20.60;;;12.37;;
16450;SDS011;12243;42.708;23.310;2023-02-07T08:36:32;20.00;;;11.23;;
16450;SDS011;12243;42.708;23.310;2023-02-07T08:38:59;16.03;;;8.37;;
16450;SDS011;12243;42.708;23.310;2023-02-07T08:41:27;18.77;;;12.53;;
16450;SDS011;12243;42.708;23.310;2023-02-07T08:43:54;22.63;;;12.97;;
16450;SDS011;12243;42.708;23.310;2023-02-07T08:46:21;15.30;;;9.80;;
16450;SDS011;12243;42.708;23.310;2023-02-07T08:48:48;24.63;;;14.27;;
16450;SDS011;12243;42.708;23.310;2023-02-07T08:51:15;22.73;;;12.73;;
16450;SDS011;12243;42.708;23.310;2023-02-07T08:53:42;18.37;;;11.70;;
16450;SDS011;12243;42.708;23.310;2023-02-07T08:56:09;19.00;;;12.30;;
16450;SDS011;12243;42.708;23.310;2023-02-07T08:58:37;14.70;;;10.87;;
16450;SDS011;12243;42.708;23.310;2023-02-07T09:01:05;20.20;;;11.70;;
16450;SDS011;12243;42.708;23.310;2023-02-07T09:03:35;16.97;;;9.80;;
16450;SDS011;12243;42.708;23.310;2023-02-07T09:06:03;15.97;;;11.23;;
16450;SDS011;12243;42.708;23.310;2023-02-07T09:08:31;16.63;;;10.43;;
16450;SDS011;12243;42.708;23.310;2023-02-07T09:10:59;15.23;;;10.27;;
16450;SDS011;12243;42.708;23.310;2023-02-07T09:13:26;18.33;;;11.20;;
16450;SDS011;12243;42.708;23.310;2023-02-07T09:15:55;14.23;;;10.70;;
16450;SDS011;12243;42.708;23.310;2023-02-07T09:18:22;16.37;;;11.70;;
16450;SDS011;12243;42.708;23.310;2023-02-07T09:20:52;15.60;;;8.97;;
16450;SDS011;12243;42.708;23.310;2023-02-07T09:23:19;16.27;;;10.30;;
16450;SDS011;12243;42.708;23.310;2023-02-07T09:25:47;16.00;;;10.50;;
16450;SDS011;12243;42.708;23.310;2023-02-07T09:28:16;18.00;;;10.73;;
16450;SDS011;12243;42.708;23.310;2023-02-07T09:30:44;17.30;;;10.90;;
16450;SDS011;12243;42.708;23.310;2023-02-07T09:33:14;16.37;;;10.73;;
16450;SDS011;12243;42.708;23.310;2023-02-07T09:35:41;18.03;;;9.70;;
16450;SDS011;12243;42.708;23.310;2023-02-07T09:38:11;14.67;;;9.43;;
16450;SDS011;12243;42.708;23.310;2023-02-07T09:40:39;17.57;;;11.47;;
16450;SDS011;12243;42.708;23.310;2023-02-07T09:43:09;20.30;;;12.10;;
16450;SDS011;12243;42.708;23.310;2023-02-07T09:45:44;16.93;;;11.70;;
16450;SDS011;12243;42.708;23.310;2023-02-07T09:48:18;13.67;;;9.43;;
16450;SDS011;12243;42.708;23.310;2023-02-07T09:50:50;14.70;;;10.10;;
16450;SDS011;12243;42.708;23.310;2023-02-07T09:53:22;7.80;;;6.53;;
16450;SDS011;12243;42.708;23.310;2023-02-07T09:55:52;15.07;;;10.10;;
16450;SDS011;12243;42.708;23.310;2023-02-07T09:58:26;13.87;;;9.23;;
16450;SDS011;12243;42.708;23.310;2023-02-07T10:01:02;11.87;;;7.60;;
16450;SDS011;12243;42.708;23.310;2023-02-07T10:03:37;14.47;;;9.50;;
16450;SDS011;12243;42.708;23.310;2023-02-07T10:06:11;18.33;;;10.67;;
16450;SDS011;12243;42.708;23.310;2023-02-07T10:08:42;16.33;;;9.80;;
16450;SDS011;12243;42.708;23.310;2023-02-07T10:11:12;16.20;;;9.87;;
16450;SDS011;12243;42.708;23.310;2023-02-07T10:13:49;13.63;;;9.70;;
16450;SDS011;12243;42.708;23.310;2023-02-07T10:16:40;14.00;;;10.00;;
16450;SDS011;12243;42.708;23.310;2023-02-07T10:19:20;13.67;;;9.40;;
16450;SDS011;12243;42.708;23.310;2023-02-07T10:22:00;18.10;;;9.20;;
16450;SDS011;12243;42.708;23.310;2023-02-07T10:24:43;15.70;;;9.53;;
16450;SDS011;12243;42.708;23.310;2023-02-07T10:27:26;17.77;;;11.00;;
16450;SDS011;12243;42.708;23.310;2023-02-07T10:29:58;15.23;;;8.93;;
16450;SDS011;12243;42.708;23.310;2023-02-07T10:32:34;17.37;;;11.03;;
16450;SDS011;12243;42.708;23.310;2023-02-07T10:35:13;16.80;;;10.17;;
16450;SDS011;12243;42.708;23.310;2023-02-07T10:37:44;12.07;;;8.17;;
16450;SDS011;12243;42.708;23.310;2023-02-07T10:40:15;17.80;;;9.80;;
16450;SDS011;12243;42.708;23.310;2023-02-07T10:42:51;17.77;;;11.03;;
16450;SDS011;12243;42.708;23.310;2023-02-07T10:45:24;10.37;;;6.80;;
16450;SDS011;12243;42.708;23.310;2023-02-07T10:47:52;13.33;;;8.83;;
16450;SDS011;12243;42.708;23.310;2023-02-07T10:50:21;14.20;;;9.10;;
16450;SDS011;12243;42.708;23.310;2023-02-07T10:52:51;12.43;;;7.67;;
16450;SDS011;12243;42.708;23.310;2023-02-07T10:55:32;13.30;;;7.57;;
16450;SDS011;12243;42.708;23.310;2023-02-07T10:58:01;13.80;;;8.67;;
16450;SDS011;12243;42.708;23.310;2023-02-07T11:00:29;14.83;;;8.70;;
16450;SDS011;12243;42.708;23.310;2023-02-07T11:02:59;9.93;;;7.77;;
16450;SDS011;12243;42.708;23.310;2023-02-07T11:05:34;11.60;;;8.30;;
16450;SDS011;12243;42.708;23.310;2023-02-07T11:08:15;12.23;;;9.00;;
16450;SDS011;12243;42.708;23.310;2023-02-07T11:10:47;12.50;;;9.87;;
16450;SDS011;12243;42.708;23.310;2023-02-07T11:13:15;14.13;;;9.13;;
16450;SDS011;12243;42.708;23.310;2023-02-07T11:15:48;15.13;;;8.63;;
16450;SDS011;12243;42.708;23.310;2023-02-07T11:18:27;13.17;;;9.07;;
16450;SDS011;12243;42.708;23.310;2023-02-07T11:21:03;11.40;;;8.30;;
16450;SDS011;12243;42.708;23.310;2023-02-07T11:23:32;10.07;;;7.53;;
16450;SDS011;12243;42.708;23.310;2023-02-07T11:26:00;11.77;;;8.37;;
16450;SDS011;12243;42.708;23.310;2023-02-07T11:28:29;9.43;;;7.43;;
16450;SDS011;12243;42.708;23.310;2023-02-07T11:30:59;8.90;;;6.93;;
16450;SDS011;12243;42.708;23.310;2023-02-07T11:33:31;10.40;;;7.03;;
16450;SDS011;12243;42.708;23.310;2023-02-07T11:36:08;8.57;;;7.00;;
16450;SDS011;12243;42.708;23.310;2023-02-07T11:38:38;12.97;;;7.63;;
16450;SDS011;12243;42.708;23.310;2023-02-07T11:41:14;10.43;;;7.73;;
16450;SDS011;12243;42.708;23.310;2023-02-07T11:43:50;9.80;;;7.27;;
16450;SDS011;12243;42.708;23.310;2023-02-07T11:46:20;11.03;;;8.03;;
16450;SDS011;12243;42.708;23.310;2023-02-07T11:48:57;8.80;;;6.83;;
16450;SDS011;12243;42.708;23.310;2023-02-07T11:51:26;8.80;;;6.73;;
16450;SDS011;12243;42.708;23.310;2023-02-07T11:53:57;11.60;;;7.63;;
16450;SDS011;12243;42.708;23.310;2023-02-07T11:56:28;10.03;;;7.57;;
16450;SDS011;12243;42.708;23.310;2023-02-07T11:58:58;10.13;;;7.37;;
16450;SDS011;12243;42.708;23.310;2023-02-07T12:01:31;10.60;;;8.17;;
16450;SDS011;12243;42.708;23.310;2023-02-07T12:04:00;19.83;;;12.83;;
16450;SDS011;12243;42.708;23.310;2023-02-07T12:06:36;16.87;;;11.30;;
16450;SDS011;12243;42.708;23.310;2023-02-07T12:09:11;18.80;;;12.30;;
16450;SDS011;12243;42.708;23.310;2023-02-07T12:11:55;16.07;;;10.47;;
16450;SDS011;12243;42.708;23.310;2023-02-07T12:14:26;13.33;;;10.03;;
16450;SDS011;12243;42.708;23.310;2023-02-07T12:17:00;15.00;;;9.43;;
16450;SDS011;12243;42.708;23.310;2023-02-07T12:19:32;16.93;;;11.10;;
16450;SDS011;12243;42.708;23.310;2023-02-07T12:22:06;13.47;;;9.53;;
16450;SDS011;12243;42.708;23.310;2023-02-07T12:24:39;13.77;;;9.53;;
16450;SDS011;12243;42.708;23.310;2023-02-07T12:27:12;12.67;;;9.53;;
16450;SDS011;12243;42.708;23.310;2023-02-07T12:29:48;15.20;;;8.97;;
16450;SDS011;12243;42.708;23.310;2023-02-07T12:32:25;12.20;;;9.13;;
16450;SDS011;12243;42.708;23.310;2023-02-07T12:34:59;14.33;;;10.83;;
16450;SDS011;12243;42.708;23.310;2023-02-07T12:37:38;16.60;;;10.10;;
16450;SDS011;12243;42.708;23.310;2023-02-07T12:40:11;10.90;;;7.80;;
16450;SDS011;12243;42.708;23.310;2023-02-07T12:42:45;12.37;;;8.80;;
16450;SDS011;12243;42.708;23.310;2023-02-07T12:45:19;12.37;;;8.73;;
16450;SDS011;12243;42.708;23.310;2023-02-07T12:47:58;14.10;;;9.10;;
16450;SDS011;12243;42.708;23.310;2023-02-07T12:50:38;16.87;;;9.90;;
16450;SDS011;12243;42.708;23.310;2023-02-07T12:53:21;13.80;;;8.40;;
16450;SDS011;12243;42.708;23.310;2023-02-07T12:55:59;13.47;;;8.30;;
16450;SDS011;12243;42.708;23.310;2023-02-07T12:58:36;15.17;;;9.53;;
16450;SDS011;12243;42.708;23.310;2023-02-07T13:01:14;17.33;;;11.53;;
16450;SDS011;12243;42.708;23.310;2023-02-07T13:07:01;34.57;;;27.37;;
16450;SDS011;12243;42.708;23.310;2023-02-07T13:09:42;20.80;;;15.27;;
16450;SDS011;12243;42.708;23.310;2023-02-07T13:12:18;24.57;;;18.83;;
16450;SDS011;12243;42.708;23.310;2023-02-07T13:14:57;11.53;;;9.30;;
16450;SDS011;12243;42.708;23.310;2023-02-07T13:17:44;14.60;;;9.90;;
16450;SDS011;12243;42.708;23.310;2023-02-07T13:20:21;16.13;;;10.43;;
16450;SDS011;12243;42.708;23.310;2023-02-07T13:22:56;13.10;;;10.10;;
16450;SDS011;12243;42.708;23.310;2023-02-07T13:25:28;17.37;;;9.70;;
16450;SDS011;12243;42.708;23.310;2023-02-07T13:27:58;14.13;;;9.77;;
16450;SDS011;12243;42.708;23.310;2023-02-07T13:30:29;14.93;;;9.10;;
16450;SDS011;12243;42.708;23.310;2023-02-07T13:32:57;13.97;;;8.67;;
16450;SDS011;12243;42.708;23.310;2023-02-07T13:35:29;10.60;;;7.77;;
16450;SDS011;12243;42.708;23.310;2023-02-07T13:38:01;17.17;;;10.33;;
16450;SDS011;12243;42.708;23.310;2023-02-07T13:40:35;13.67;;;9.60;;
16450;SDS011;12243;42.708;23.310;2023-02-07T13:43:19;12.30;;;8.77;;
16450;SDS011;12243;42.708;23.310;2023-02-07T13:46:00;13.97;;;9.50;;
16450;SDS011;12243;42.708;23.310;2023-02-07T13:48:39;11.13;;;7.40;;
16450;SDS011;12243;42.708;23.310;2023-02-07T13:51:13;11.53;;;8.40;;
16450;SDS011;12243;42.708;23.310;2023-02-07T13:53:52;13.23;;;8.27;;
16450;SDS011;12243;42.708;23.310;2023-02-07T13:56:30;13.37;;;10.43;;
16450;SDS011;12243;42.708;23.310;2023-02-07T13:59:31;15.23;;;12.07;;
16450;SDS011;12243;42.708;23.310;2023-02-07T14:02:12;13.57;;;9.73;;
16450;SDS011;12243;42.708;23.310;2023-02-07T14:04:47;12.27;;;9.47;;
16450;SDS011;12243;42.708;23.310;2023-02-07T14:07:18;13.70;;;8.80;;
16450;SDS011;12243;42.708;23.310;2023-02-07T14:09:49;12.07;;;8.53;;
16450;SDS011;12243;42.708;23.310;2023-02-07T14:12:21;11.03;;;8.47;;
16450;SDS011;12243;42.708;23.310;2023-02-07T14:14:51;12.60;;;9.27;;
16450;SDS011;12243;42.708;23.310;2023-02-07T14:23:16;15.93;;;8.53;;
16450;SDS011;12243;42.708;23.310;2023-02-07T14:25:44;15.03;;;9.30;;
16450;SDS011;12243;42.708;23.310;2023-02-07T14:28:22;11.40;;;8.53;;
16450;SDS011;12243;42.708;23.310;2023-02-07T14:36:36;13.63;;;8.30;;
16450;SDS011;12243;42.708;23.310;2023-02-07T14:39:05;12.73;;;9.07;;
16450;SDS011;12243;42.708;23.310;2023-02-07T14:41:49;15.13;;;9.30;;
16450;SDS011;12243;42.708;23.310;2023-02-07T14:44:23;13.00;;;8.50;;
16450;SDS011;12243;42.708;23.310;2023-02-07T14:46:54;15.23;;;9.30;;
16450;SDS011;12243;42.708;23.310;2023-02-07T14:49:26;14.03;;;9.03;;
16450;SDS011;12243;42.708;23.310;2023-02-07T14:51:58;19.77;;;11.50;;
16450;SDS011;12243;42.708;23.310;2023-02-07T14:54:26;17.27;;;9.43;;
16450;SDS011;12243;42.708;23.310;2023-02-07T14:57:00;18.87;;;11.10;;
16450;SDS011;12243;42.708;23.310;2023-02-07T14:59:39;16.03;;;9.53;;
16450;SDS011;12243;42.708;23.310;2023-02-07T15:02:28;13.83;;;8.60;;
16450;SDS011;12243;42.708;23.310;2023-02-07T15:04:58;15.37;;;9.63;;
16450;SDS011;12243;42.708;23.310;2023-02-07T15:07:41;14.33;;;9.60;;
16450;SDS011;12243;42.708;23.310;2023-02-07T15:10:12;16.10;;;9.50;;
16450;SDS011;12243;42.708;23.310;2023-02-07T15:12:40;10.53;;;7.53;;